createdAt,value
2018-08-13T00:00:15.285Z,1000.2
2018-08-13T00:01:15.275Z,1000.2
2018-08-13T00:02:15.264Z,1000.15
2018-08-13T00:03:15.250Z,1000.16
2018-08-13T00:04:15.243Z,1000.15
2018-08-13T00:05:15.229Z,1000.12
2018-08-13T00:06:15.219Z,1000.1
2018-08-13T00:07:15.205Z,1000.09
2018-08-13T00:08:15.197Z,1000.1
2018-08-13T00:09:15.188Z,1000.09
2018-08-13T00:10:15.173Z,1000.08
2018-08-13T00:11:15.166Z,1000.05
2018-08-13T00:12:15.154Z,1000.06
2018-08-13T00:13:15.142Z,1000.08
2018-08-13T00:14:15.131Z,1000.07
2018-08-13T00:15:15.123Z,1000.07
2018-08-13T00:16:15.112Z,1000.06
2018-08-13T00:17:15.101Z,1000.04
2018-08-13T00:18:15.090Z,1000.02
2018-08-13T00:19:15.084Z,1000.03
2018-08-13T00:20:15.069Z,1000.05
2018-08-13T00:21:15.062Z,1000.02
2018-08-13T00:22:15.047Z,1000.05
2018-08-13T00:23:15.037Z,1000.04
2018-08-13T00:24:15.029Z,1000.02
2018-08-13T00:25:15.016Z,1000.03
2018-08-13T00:26:15.007Z,999.95
2018-08-13T00:27:14.994Z,999.93
2018-08-13T00:28:14.983Z,999.88
2018-08-13T00:29:14.972Z,999.88
2018-08-13T00:30:14.962Z,999.82
2018-08-13T00:31:14.951Z,999.83
2018-08-13T00:32:14.941Z,999.82
2018-08-13T00:33:14.930Z,999.83
2018-08-13T00:34:14.919Z,999.86
2018-08-13T00:35:14.910Z,999.86
2018-08-13T00:36:14.898Z,999.83
2018-08-13T00:37:14.893Z,999.82
2018-08-13T00:38:14.876Z,999.83
2018-08-13T00:39:15.068Z,999.79
2018-08-13T00:40:14.856Z,999.82
2018-08-13T00:41:14.847Z,999.79
2018-08-13T00:42:14.833Z,999.78
2018-08-13T00:43:14.821Z,999.73
2018-08-13T00:44:14.812Z,999.74
2018-08-13T00:45:14.800Z,999.71
2018-08-13T00:46:14.789Z,999.73
2018-08-13T00:47:14.781Z,999.75
2018-08-13T00:48:14.771Z,999.72
2018-08-13T00:49:14.757Z,999.73
2018-08-13T00:50:14.753Z,999.7
2018-08-13T00:51:14.735Z,999.7
2018-08-13T00:52:14.727Z,999.68
2018-08-13T00:53:14.714Z,999.65
2018-08-13T00:54:14.704Z,999.66
2018-08-13T00:55:14.697Z,999.61
2018-08-13T00:56:14.685Z,999.61
2018-08-13T00:57:14.672Z,999.61
2018-08-13T00:58:14.661Z,999.6
2018-08-13T00:59:14.700Z,999.61
2018-08-13T01:00:14.640Z,999.59
2018-08-13T01:01:14.633Z,999.6
2018-08-13T01:02:14.618Z,999.61
2018-08-13T01:03:14.607Z,999.59
2018-08-13T01:04:14.596Z,999.58
2018-08-13T01:05:14.586Z,999.54
2018-08-13T01:06:14.577Z,999.52
2018-08-13T01:07:14.565Z,999.51
2018-08-13T01:08:14.552Z,999.49
2018-08-13T01:09:14.544Z,999.46
2018-08-13T01:10:14.535Z,999.47
2018-08-13T01:11:14.520Z,999.46
2018-08-13T01:12:14.511Z,999.46
2018-08-13T01:13:14.502Z,999.51
2018-08-13T01:14:14.490Z,999.46
2018-08-13T01:15:14.478Z,999.5
2018-08-13T01:16:14.471Z,999.49
2018-08-13T01:17:14.459Z,999.45
2018-08-13T01:18:14.447Z,999.45
2018-08-13T01:19:14.443Z,999.46
2018-08-13T01:20:14.441Z,999.49
2018-08-13T01:21:14.416Z,999.47
2018-08-13T01:22:14.407Z,999.47
2018-08-13T01:23:14.395Z,999.45
2018-08-13T01:24:14.387Z,999.44
2018-08-13T01:25:14.376Z,999.4
2018-08-13T01:26:14.364Z,999.39
2018-08-13T01:27:14.352Z,999.37
2018-08-13T01:28:14.342Z,999.33
2018-08-13T01:29:14.335Z,999.33
2018-08-13T01:30:14.321Z,999.3
2018-08-13T01:31:14.311Z,999.27
2018-08-13T01:32:14.302Z,999.28
2018-08-13T01:33:14.290Z,999.3
2018-08-13T01:34:14.280Z,999.29
2018-08-13T01:35:14.271Z,999.32
2018-08-13T01:36:14.259Z,999.3
2018-08-13T01:37:14.247Z,999.31
2018-08-13T01:38:14.237Z,999.3
2018-08-13T01:39:14.227Z,999.28
2018-08-13T01:40:14.216Z,999.23
2018-08-13T01:41:14.207Z,999.26
2018-08-13T01:42:14.197Z,999.25
2018-08-13T01:43:14.185Z,999.21
2018-08-13T01:44:14.177Z,999.23
2018-08-13T01:45:14.166Z,999.22
2018-08-13T01:46:14.154Z,999.15
2018-08-13T01:47:14.146Z,999.12
2018-08-13T01:48:14.132Z,999.14
2018-08-13T01:49:14.123Z,999.12
2018-08-13T01:50:14.111Z,999.06
2018-08-13T01:51:14.103Z,999.04
2018-08-13T01:52:14.096Z,999.01
2018-08-13T01:53:14.081Z,999.01
2018-08-13T01:54:14.074Z,998.99
2018-08-13T01:55:14.063Z,998.95
2018-08-13T01:56:14.054Z,998.96
2018-08-13T01:57:14.040Z,998.94
2018-08-13T01:58:14.028Z,998.95
2018-08-13T01:59:14.018Z,998.94
2018-08-13T02:00:14.009Z,998.92
2018-08-13T02:01:14.053Z,998.92
2018-08-13T02:02:13.986Z,998.93
2018-08-13T02:03:13.978Z,998.95
2018-08-13T02:04:13.971Z,998.94
2018-08-13T02:05:13.959Z,998.88
2018-08-13T02:06:13.953Z,998.9
2018-08-13T02:07:13.935Z,998.89
2018-08-13T02:08:13.924Z,998.9
2018-08-13T02:09:13.916Z,998.84
2018-08-13T02:10:13.904Z,998.83
2018-08-13T02:11:13.895Z,998.82
2018-08-13T02:12:13.884Z,998.8
2018-08-13T02:13:13.873Z,998.82
2018-08-13T02:14:13.867Z,998.87
2018-08-13T02:15:13.854Z,998.91
2018-08-13T02:16:13.842Z,998.9
2018-08-13T02:17:13.836Z,998.92
2018-08-13T02:18:13.822Z,998.87
2018-08-13T02:19:13.814Z,998.87
2018-08-13T02:20:13.801Z,998.85
2018-08-13T02:21:13.794Z,998.87
2018-08-13T02:22:13.778Z,998.88
2018-08-13T02:23:13.767Z,998.93
2018-08-13T02:24:13.760Z,998.94
2018-08-13T02:25:13.747Z,998.94
2018-08-13T02:26:13.744Z,998.91
2018-08-13T02:27:13.731Z,998.9
2018-08-13T02:28:13.715Z,998.9
2018-08-13T02:29:13.707Z,998.91
2018-08-13T02:30:13.697Z,998.92
2018-08-13T02:31:13.689Z,998.93
2018-08-13T02:32:13.677Z,998.91
2018-08-13T02:33:13.676Z,998.93
2018-08-13T02:34:13.655Z,998.93
2018-08-13T02:35:13.645Z,998.96
2018-08-13T02:36:13.632Z,998.94
2018-08-13T02:37:13.621Z,998.92
2018-08-13T02:38:13.615Z,998.9
2018-08-13T02:39:13.881Z,998.88
2018-08-13T02:40:13.598Z,998.92
2018-08-13T02:41:13.581Z,998.9
2018-08-13T02:42:13.576Z,998.85
2018-08-13T02:43:13.563Z,998.87
2018-08-13T02:44:13.550Z,998.86
2018-08-13T02:45:13.541Z,998.85
2018-08-13T02:46:13.530Z,998.8
2018-08-13T02:47:13.517Z,998.79
2018-08-13T02:48:13.508Z,998.74
2018-08-13T02:49:13.499Z,998.74
2018-08-13T02:50:13.486Z,998.71
2018-08-13T02:51:13.476Z,998.73
2018-08-13T02:52:13.467Z,998.77
2018-08-13T02:53:13.458Z,998.79
2018-08-13T02:54:13.444Z,998.8
2018-08-13T02:55:13.436Z,998.81
2018-08-13T02:56:13.431Z,998.83
2018-08-13T02:57:13.413Z,998.81
2018-08-13T02:58:13.478Z,998.77
2018-08-13T02:59:13.392Z,998.72
2018-08-13T03:00:13.384Z,998.67
2018-08-13T03:01:13.371Z,998.63
2018-08-13T03:02:13.360Z,998.6
2018-08-13T03:03:13.351Z,998.58
2018-08-13T03:04:13.338Z,998.55
2018-08-13T03:05:13.329Z,998.56
2018-08-13T03:06:13.318Z,998.52
2018-08-13T03:07:13.308Z,998.52
2018-08-13T03:08:13.297Z,998.53
2018-08-13T03:09:13.286Z,998.48
2018-08-13T03:10:13.277Z,998.49
2018-08-13T03:11:13.269Z,998.47
2018-08-13T03:12:13.257Z,998.49
2018-08-13T03:13:13.244Z,998.44
2018-08-13T03:14:13.243Z,998.42
2018-08-13T03:15:13.255Z,998.42
2018-08-13T03:16:13.214Z,998.4
2018-08-13T03:17:13.204Z,998.37
2018-08-13T03:18:13.192Z,998.34
2018-08-13T03:19:13.186Z,998.34
2018-08-13T03:20:13.172Z,998.29
2018-08-13T03:21:13.163Z,998.33
2018-08-13T03:22:13.150Z,998.34
2018-08-13T03:23:13.142Z,998.34
2018-08-13T03:24:13.129Z,998.31
2018-08-13T03:25:13.118Z,998.29
2018-08-13T03:26:13.110Z,998.26
2018-08-13T03:27:13.098Z,998.23
2018-08-13T03:28:13.090Z,998.27
2018-08-13T03:29:13.077Z,998.21
2018-08-13T03:30:13.076Z,998.22
2018-08-13T03:31:13.058Z,998.2
2018-08-13T03:32:13.046Z,998.14
2018-08-13T03:33:13.037Z,998.12
2018-08-13T03:34:13.025Z,998.14
2018-08-13T03:35:13.016Z,998.12
2018-08-13T03:36:13.008Z,998.14
2018-08-13T03:37:12.998Z,998.14
2018-08-13T03:38:12.983Z,998.12
2018-08-13T03:39:12.975Z,998.11
2018-08-13T03:40:12.963Z,998.11
2018-08-13T03:41:12.952Z,998.1
2018-08-13T03:42:12.941Z,998.06
2018-08-13T03:43:12.932Z,998.13
2018-08-13T03:44:12.925Z,998.14
2018-08-13T03:45:12.910Z,998.18
2018-08-13T03:46:12.903Z,998.2
2018-08-13T03:47:12.890Z,998.18
2018-08-13T03:48:12.879Z,998.17
2018-08-13T03:49:12.869Z,998.18
2018-08-13T03:50:12.860Z,998.13
2018-08-13T03:51:12.850Z,998.18
2018-08-13T03:52:12.837Z,998.13
2018-08-13T03:53:12.826Z,998.13
2018-08-13T03:54:12.818Z,998.13
2018-08-13T03:55:12.806Z,998.01
2018-08-13T03:56:12.795Z,998
2018-08-13T03:57:12.785Z,997.97
2018-08-13T03:58:12.779Z,997.99
2018-08-13T03:59:12.763Z,998.01
2018-08-13T04:00:12.754Z,998.02
2018-08-13T04:01:12.743Z,998.03
2018-08-13T04:02:12.733Z,997.99
2018-08-13T04:03:12.724Z,997.93
2018-08-13T04:04:12.716Z,997.92
2018-08-13T04:05:12.705Z,997.89
2018-08-13T04:06:12.694Z,997.93
2018-08-13T04:07:12.681Z,997.96
2018-08-13T04:08:12.670Z,997.97
2018-08-13T04:09:12.661Z,997.98
2018-08-13T04:10:12.650Z,997.99
2018-08-13T04:11:12.638Z,997.98
2018-08-13T04:12:12.677Z,997.95
2018-08-13T04:13:12.618Z,997.89
2018-08-13T04:14:12.607Z,997.89
2018-08-13T04:15:12.601Z,997.9
2018-08-13T04:16:12.589Z,997.84
2018-08-13T04:17:12.578Z,997.83
2018-08-13T04:18:12.565Z,997.81
2018-08-13T04:19:12.558Z,997.78
2018-08-13T04:20:12.547Z,997.76
2018-08-13T04:21:12.533Z,997.78
2018-08-13T04:22:12.523Z,997.76
2018-08-13T04:23:12.516Z,997.8
2018-08-13T04:24:12.502Z,997.8
2018-08-13T04:25:12.493Z,997.79
2018-08-13T04:26:12.482Z,997.79
2018-08-13T04:27:12.472Z,997.76
2018-08-13T04:28:12.460Z,997.75
2018-08-13T04:29:12.451Z,997.74
2018-08-13T04:30:12.440Z,997.73
2018-08-13T04:31:12.434Z,997.69
2018-08-13T04:32:12.417Z,997.66
2018-08-13T04:33:12.407Z,997.7
2018-08-13T04:34:12.399Z,997.73
2018-08-13T04:35:12.392Z,997.77
2018-08-13T04:36:12.377Z,997.78
2018-08-13T04:37:12.369Z,997.78
2018-08-13T04:38:12.358Z,997.77
2018-08-13T04:39:12.545Z,997.81
2018-08-13T04:40:12.336Z,997.83
2018-08-13T04:41:12.325Z,997.86
2018-08-13T04:42:12.315Z,997.86
2018-08-13T04:43:12.304Z,997.85
2018-08-13T04:44:12.294Z,997.83
2018-08-13T04:45:12.284Z,997.81
2018-08-13T04:46:12.272Z,997.86
2018-08-13T04:47:12.262Z,997.86
2018-08-13T04:48:12.251Z,997.95
2018-08-13T04:49:12.241Z,998
2018-08-13T04:50:12.232Z,998.03
2018-08-13T04:51:12.221Z,998.05
2018-08-13T04:52:12.227Z,998.05
2018-08-13T04:53:12.201Z,998.08
2018-08-13T04:54:12.188Z,998.1
2018-08-13T04:55:12.181Z,998.11
2018-08-13T04:56:12.167Z,998.16
2018-08-13T04:57:12.158Z,998.17
2018-08-13T04:58:12.148Z,998.12
2018-08-13T04:59:12.141Z,998.17
2018-08-13T05:00:12.130Z,998.19
2018-08-13T05:01:12.126Z,998.22
2018-08-13T05:02:12.111Z,998.25
2018-08-13T05:03:12.096Z,998.2
2018-08-13T05:04:12.086Z,998.21
2018-08-13T05:05:12.074Z,998.2
2018-08-13T05:06:12.064Z,998.2
2018-08-13T05:07:12.061Z,998.2
2018-08-13T05:08:12.043Z,998.23
2018-08-13T05:09:12.034Z,998.25
2018-08-13T05:10:12.025Z,998.31
2018-08-13T05:11:12.016Z,998.35
2018-08-13T05:12:12.003Z,998.37
2018-08-13T05:13:11.991Z,998.44
2018-08-13T05:14:11.986Z,998.47
2018-08-13T05:15:11.971Z,998.46
2018-08-13T05:16:11.964Z,998.5
2018-08-13T05:17:11.955Z,998.45
2018-08-13T05:18:11.943Z,998.44
2018-08-13T05:19:11.931Z,998.38
2018-08-13T05:20:11.920Z,998.38
2018-08-13T05:21:11.929Z,998.4
2018-08-13T05:22:11.898Z,998.37
2018-08-13T05:23:11.890Z,998.4
2018-08-13T05:24:11.882Z,998.4
2018-08-13T05:25:11.872Z,998.46
2018-08-13T05:26:11.862Z,998.43
2018-08-13T05:27:11.848Z,998.47
2018-08-13T05:28:11.840Z,998.5
2018-08-13T05:29:11.831Z,998.51
2018-08-13T05:30:11.847Z,998.51
2018-08-13T05:31:11.808Z,998.51
2018-08-13T05:32:11.799Z,998.53
2018-08-13T05:33:11.786Z,998.47
2018-08-13T05:34:11.776Z,998.44
2018-08-13T05:35:11.765Z,998.43
2018-08-13T05:36:11.759Z,998.47
2018-08-13T05:37:11.751Z,998.43
2018-08-13T05:38:11.773Z,998.5
2018-08-13T05:39:11.727Z,998.48
2018-08-13T05:40:11.720Z,998.53
2018-08-13T05:41:11.705Z,998.58
2018-08-13T05:42:11.700Z,998.53
2018-08-13T05:43:11.685Z,998.51
2018-08-13T05:44:11.675Z,998.53
2018-08-13T05:45:11.665Z,998.5
2018-08-13T05:46:11.653Z,998.45
2018-08-13T05:47:11.646Z,998.48
2018-08-13T05:48:11.635Z,998.44
2018-08-13T05:49:11.625Z,998.45
2018-08-13T05:50:11.614Z,998.48
2018-08-13T05:51:11.608Z,998.49
2018-08-13T05:52:11.593Z,998.49
2018-08-13T05:53:11.585Z,998.48
2018-08-13T05:54:11.577Z,998.51
2018-08-13T05:55:11.563Z,998.54
2018-08-13T05:56:11.553Z,998.52
2018-08-13T05:57:11.548Z,998.53
2018-08-13T05:58:11.534Z,998.55
2018-08-13T05:59:11.523Z,998.54
2018-08-13T06:00:11.515Z,998.52
2018-08-13T06:01:11.506Z,998.51
2018-08-13T06:02:11.493Z,998.54
2018-08-13T06:03:11.541Z,998.44
2018-08-13T06:04:11.475Z,998.41
2018-08-13T06:05:11.464Z,998.41
2018-08-13T06:06:11.456Z,998.42
2018-08-13T06:07:11.448Z,998.42
2018-08-13T06:08:11.439Z,998.45
2018-08-13T06:09:11.426Z,998.44
2018-08-13T06:10:11.416Z,998.47
2018-08-13T06:11:11.415Z,998.48
2018-08-13T06:12:11.395Z,998.51
2018-08-13T06:13:11.386Z,998.54
2018-08-13T06:14:11.375Z,998.59
2018-08-13T06:15:11.366Z,998.65
2018-08-13T06:16:11.357Z,998.63
2018-08-13T06:17:11.347Z,998.68
2018-08-13T06:18:11.498Z,998.68
2018-08-13T06:19:11.330Z,998.63
2018-08-13T06:20:11.328Z,998.6
2018-08-13T06:21:11.310Z,998.63
2018-08-13T06:22:11.300Z,998.67
2018-08-13T06:23:11.288Z,998.7
2018-08-13T06:24:11.339Z,998.69
2018-08-13T06:25:11.270Z,998.71
2018-08-13T06:26:11.260Z,998.74
2018-08-13T06:27:11.250Z,998.74
2018-08-13T06:28:11.257Z,998.72
2018-08-13T06:29:11.229Z,998.77
2018-08-13T06:30:11.317Z,998.78
2018-08-13T06:31:11.210Z,998.76
2018-08-13T06:32:11.200Z,998.76
2018-08-13T06:33:11.190Z,998.82
2018-08-13T06:34:11.178Z,998.82
2018-08-13T06:35:11.201Z,998.85
2018-08-13T06:36:11.158Z,998.79
2018-08-13T06:37:11.238Z,998.85
2018-08-13T06:38:11.138Z,998.84
2018-08-13T06:39:11.331Z,998.83
2018-08-13T06:40:11.119Z,998.86
2018-08-13T06:41:11.111Z,998.89
2018-08-13T06:42:11.100Z,998.86
2018-08-13T06:43:11.091Z,998.88
2018-08-13T06:44:11.080Z,998.92
2018-08-13T06:45:11.069Z,998.88
2018-08-13T06:46:11.065Z,998.87
2018-08-13T06:47:11.122Z,999
2018-08-13T06:48:11.039Z,998.93
2018-08-13T06:49:11.029Z,998.96
2018-08-13T06:50:11.021Z,998.96
2018-08-13T06:51:11.011Z,998.96
2018-08-13T06:52:11.004Z,998.94
2018-08-13T06:53:10.994Z,998.91
2018-08-13T06:54:10.981Z,998.94
2018-08-13T06:55:10.978Z,998.93
2018-08-13T06:56:10.961Z,998.97
2018-08-13T06:57:10.952Z,998.95
2018-08-13T06:58:10.940Z,998.94
2018-08-13T06:59:10.934Z,998.97
2018-08-13T07:00:10.923Z,998.92
2018-08-13T07:01:10.912Z,998.94
2018-08-13T07:02:10.901Z,998.96
2018-08-13T07:03:10.897Z,998.94
2018-08-13T07:04:10.885Z,998.94
2018-08-13T07:05:10.873Z,998.89
2018-08-13T07:06:10.944Z,998.9
2018-08-13T07:07:10.850Z,998.84
2018-08-13T07:08:10.840Z,998.8
2018-08-13T07:09:10.829Z,998.78
2018-08-13T07:10:10.817Z,998.7
2018-08-13T07:11:10.826Z,998.66
2018-08-13T07:12:10.799Z,998.62
2018-08-13T07:13:10.788Z,998.59
2018-08-13T07:14:10.787Z,998.54
2018-08-13T07:15:10.767Z,998.6
2018-08-13T07:16:10.757Z,998.6
2018-08-13T07:17:10.746Z,998.57
2018-08-13T07:18:10.736Z,998.43
2018-08-13T07:19:10.731Z,998.36
2018-08-13T07:20:10.715Z,998.28
2018-08-13T07:21:10.707Z,998.22
2018-08-13T07:22:10.736Z,998.2
2018-08-13T07:23:10.684Z,998.12
2018-08-13T07:24:10.674Z,998.05
2018-08-13T07:25:10.662Z,997.93
2018-08-13T07:26:10.653Z,997.91
2018-08-13T07:27:10.643Z,997.83
2018-08-13T07:28:10.641Z,997.85
2018-08-13T07:29:10.622Z,997.85
2018-08-13T07:30:10.615Z,997.86
2018-08-13T07:31:10.603Z,997.87
2018-08-13T07:32:10.592Z,997.94
2018-08-13T07:33:10.583Z,998.01
2018-08-13T07:34:10.576Z,998.09
2018-08-13T07:35:10.560Z,998.16
2018-08-13T07:36:10.562Z,998.24
2018-08-13T07:37:10.544Z,998.27
2018-08-13T07:38:10.531Z,998.28
2018-08-13T07:39:10.526Z,998.26
2018-08-13T07:40:10.514Z,998.23
2018-08-13T07:41:10.504Z,998.23
2018-08-13T07:42:10.496Z,998.23
2018-08-13T07:43:10.489Z,998.29
2018-08-13T07:44:10.477Z,998.36
2018-08-13T07:45:10.469Z,998.35
2018-08-13T07:46:10.460Z,998.38
2018-08-13T07:47:10.450Z,998.38
2018-08-13T07:48:10.442Z,998.41
2018-08-13T07:49:10.430Z,998.39
2018-08-13T07:50:10.421Z,998.45
2018-08-13T07:51:10.414Z,998.5
2018-08-13T07:52:10.404Z,998.5
2018-08-13T07:53:10.391Z,998.46
2018-08-13T07:54:10.384Z,998.48
2018-08-13T07:55:10.376Z,998.53
2018-08-13T07:56:10.369Z,998.56
2018-08-13T07:57:10.356Z,998.52
2018-08-13T07:58:10.347Z,998.54
2018-08-13T07:59:10.344Z,998.51
2018-08-13T08:00:10.330Z,998.51
2018-08-13T08:01:10.320Z,998.47
2018-08-13T08:02:10.314Z,998.48
2018-08-13T08:03:10.304Z,998.45
2018-08-13T08:04:10.290Z,998.47
2018-08-13T08:05:10.285Z,998.49
2018-08-13T08:06:10.275Z,998.52
2018-08-13T08:07:10.266Z,998.53
2018-08-13T08:08:10.256Z,998.57
2018-08-13T08:09:10.273Z,998.55
2018-08-13T08:10:10.240Z,998.53
2018-08-13T08:11:10.230Z,998.49
2018-08-13T08:12:10.225Z,998.53
2018-08-13T08:13:10.217Z,998.53
2018-08-13T08:14:10.205Z,998.55
2018-08-13T08:15:10.194Z,998.62
2018-08-13T08:16:10.186Z,998.63
2018-08-13T08:17:10.177Z,998.69
2018-08-13T08:18:10.169Z,998.69
2018-08-13T08:19:10.159Z,998.73
2018-08-13T08:20:10.151Z,998.81
2018-08-13T08:21:10.143Z,998.84
2018-08-13T08:22:10.132Z,998.87
2018-08-13T08:23:10.124Z,998.89
2018-08-13T08:24:10.163Z,998.92
2018-08-13T08:25:10.105Z,998.9
2018-08-13T08:26:10.096Z,998.92
2018-08-13T08:27:10.087Z,998.92
2018-08-13T08:28:10.084Z,998.95
2018-08-13T08:29:10.080Z,998.97
2018-08-13T08:30:10.061Z,998.96
2018-08-13T08:31:10.054Z,999
2018-08-13T08:32:10.043Z,998.97
2018-08-13T08:33:10.032Z,998.95
2018-08-13T08:34:10.026Z,998.95
2018-08-13T08:35:10.031Z,998.93
2018-08-13T08:36:10.005Z,998.89
2018-08-13T08:37:09.995Z,998.94
2018-08-13T08:38:09.986Z,998.99
2018-08-13T08:39:09.977Z,999.06
2018-08-13T08:40:09.969Z,999.1
2018-08-13T08:41:09.957Z,999.15
2018-08-13T08:42:09.951Z,999.07
2018-08-13T08:43:09.941Z,999.02
2018-08-13T08:44:09.932Z,998.95
2018-08-13T08:45:09.925Z,998.9
2018-08-13T08:46:09.915Z,998.97
2018-08-13T08:47:09.905Z,999.02
2018-08-13T08:48:09.895Z,999.05
2018-08-13T08:49:09.887Z,999.03
2018-08-13T08:50:09.878Z,999.08
2018-08-13T08:51:09.869Z,999.06
2018-08-13T08:52:09.863Z,999.1
2018-08-13T08:53:09.854Z,999.14
2018-08-13T08:54:09.843Z,999.09
2018-08-13T08:55:09.834Z,999.14
2018-08-13T08:56:09.826Z,999.09
2018-08-13T08:57:09.816Z,999.04
2018-08-13T08:58:09.810Z,999.05
2018-08-13T08:59:09.799Z,999.07
2018-08-13T09:00:09.794Z,999.05
2018-08-13T09:01:09.784Z,999.08
2018-08-13T09:02:09.776Z,999.1
2018-08-13T09:03:09.765Z,999.11
2018-08-13T09:04:09.756Z,999.14
2018-08-13T09:05:09.748Z,999.14
2018-08-13T09:06:09.741Z,999.17
2018-08-13T09:07:09.732Z,999.09
2018-08-13T09:08:09.723Z,999.06
2018-08-13T09:09:09.715Z,999.08
2018-08-13T09:10:09.715Z,999.12
2018-08-13T09:11:09.698Z,999.13
2018-08-13T09:12:09.691Z,999.14
2018-08-13T09:13:09.679Z,999.13
2018-08-13T09:14:09.711Z,999.17
2018-08-13T09:15:09.665Z,999.19
2018-08-13T09:16:09.656Z,999.2
2018-08-13T09:17:09.648Z,999.2
2018-08-13T09:18:09.645Z,999.21
2018-08-13T09:19:09.703Z,999.16
2018-08-13T09:20:09.623Z,999.26
2018-08-13T09:21:09.617Z,999.21
2018-08-13T09:22:09.605Z,999.21
2018-08-13T09:23:09.596Z,999.19
2018-08-13T09:24:09.591Z,999.14
2018-08-13T09:25:09.583Z,999.14
2018-08-13T09:26:09.587Z,999.18
2018-08-13T09:27:09.562Z,999.23
2018-08-13T09:28:09.554Z,999.23
2018-08-13T09:29:09.546Z,999.19
2018-08-13T09:30:09.537Z,999.21
2018-08-13T09:31:09.529Z,999.19
2018-08-13T09:32:09.521Z,999.15
2018-08-13T09:33:09.510Z,999.12
2018-08-13T09:34:09.503Z,999.1
2018-08-13T09:35:09.491Z,999.14
2018-08-13T09:36:09.486Z,999.07
2018-08-13T09:37:09.474Z,999.11
2018-08-13T09:38:09.466Z,999.04
2018-08-13T09:39:09.457Z,999.04
2018-08-13T09:40:09.447Z,999.11
2018-08-13T09:41:09.440Z,999.05
2018-08-13T09:42:09.434Z,999.04
2018-08-13T09:43:09.421Z,999
2018-08-13T09:44:09.412Z,999.04
2018-08-13T09:45:09.403Z,998.96
2018-08-13T09:46:09.394Z,999
2018-08-13T09:47:09.389Z,998.97
2018-08-13T09:48:09.432Z,998.95
2018-08-13T09:49:09.370Z,998.94
2018-08-13T09:50:09.358Z,998.94
2018-08-13T09:51:09.352Z,998.91
2018-08-13T09:52:09.343Z,998.86
2018-08-13T09:53:09.334Z,998.76
2018-08-13T09:54:09.324Z,998.78
2018-08-13T09:55:09.314Z,998.76
2018-08-13T09:56:09.309Z,998.75
2018-08-13T09:57:09.297Z,998.71
2018-08-13T09:58:09.290Z,998.72
2018-08-13T09:59:09.280Z,998.77
2018-08-13T10:00:09.321Z,998.78
2018-08-13T10:01:09.268Z,998.81
2018-08-13T10:02:09.256Z,998.77
2018-08-13T10:03:09.248Z,998.8
2018-08-13T10:04:09.243Z,998.74
2018-08-13T10:05:09.234Z,998.82
2018-08-13T10:06:09.226Z,998.73
2018-08-13T10:07:09.218Z,998.77
2018-08-13T10:08:09.209Z,998.77
2018-08-13T10:09:09.214Z,998.77
2018-08-13T10:10:09.199Z,998.77
2018-08-13T10:11:09.187Z,998.81
2018-08-13T10:12:09.180Z,998.79
2018-08-13T10:13:09.169Z,998.81
2018-08-13T10:14:09.162Z,998.76
2018-08-13T10:15:09.156Z,998.8
2018-08-13T10:16:09.154Z,998.79
2018-08-13T10:17:09.143Z,998.88
2018-08-13T10:18:09.133Z,998.84
2018-08-13T10:19:09.128Z,998.81
2018-08-13T10:20:09.119Z,998.8
2018-08-13T10:21:09.111Z,998.79
2018-08-13T10:22:09.105Z,998.79
2018-08-13T10:23:09.103Z,998.85
2018-08-13T10:24:09.091Z,998.75
2018-08-13T10:25:09.088Z,998.81
2018-08-13T10:26:09.078Z,998.79
2018-08-13T10:27:09.071Z,998.78
2018-08-13T10:28:09.064Z,998.78
2018-08-13T10:29:09.057Z,998.84
2018-08-13T10:30:09.052Z,998.85
2018-08-13T10:31:09.049Z,998.78
2018-08-13T10:32:09.044Z,998.85
2018-08-13T10:33:09.036Z,998.76
2018-08-13T10:34:09.028Z,998.74
2018-08-13T10:35:09.027Z,998.7
2018-08-13T10:36:09.017Z,998.78
2018-08-13T10:37:09.019Z,998.76
2018-08-13T10:38:09.005Z,998.76
2018-08-13T10:39:09.004Z,998.84
2018-08-13T10:40:08.997Z,998.77
2018-08-13T10:41:08.988Z,998.8
2018-08-13T10:42:08.982Z,998.72
2018-08-13T10:43:08.977Z,998.74
2018-08-13T10:44:08.975Z,998.71
2018-08-13T10:45:08.965Z,998.68
2018-08-13T10:46:08.963Z,998.68
2018-08-13T10:47:08.955Z,998.65
2018-08-13T10:48:08.949Z,998.75
2018-08-13T10:49:08.943Z,998.72
2018-08-13T10:50:08.937Z,998.9
2018-08-13T10:51:08.932Z,998.86
2018-08-13T10:52:08.925Z,998.74
2018-08-13T10:53:08.922Z,998.76
2018-08-13T10:54:08.918Z,998.65
2018-08-13T10:55:08.917Z,998.57
2018-08-13T10:56:08.945Z,998.56
2018-08-13T10:57:08.904Z,998.59
2018-08-13T10:58:08.900Z,998.52
2018-08-13T10:59:08.896Z,998.63
2018-08-13T11:00:08.894Z,998.55
2018-08-13T11:01:08.971Z,998.59
2018-08-13T11:02:08.895Z,998.57
2018-08-13T11:03:08.893Z,998.5
2018-08-13T11:04:08.877Z,998.78
2018-08-13T11:05:08.877Z,998.79
2018-08-13T11:06:08.868Z,998.81
2018-08-13T11:07:08.870Z,998.75
2018-08-13T11:08:08.860Z,998.81
2018-08-13T11:09:08.859Z,998.8
2018-08-13T11:10:08.900Z,998.53
2018-08-13T11:11:08.852Z,998.53
2018-08-13T11:12:08.849Z,998.66
2018-08-13T11:13:08.847Z,998.6
2018-08-13T11:14:08.847Z,998.69
2018-08-13T11:15:08.843Z,998.48
2018-08-13T11:16:08.842Z,998.44
2018-08-13T11:17:08.838Z,998.44
2018-08-13T11:18:08.844Z,998.4
2018-08-13T11:19:08.833Z,998.44
2018-08-13T11:20:08.831Z,998.4
2018-08-13T11:21:08.829Z,998.41
2018-08-13T11:22:08.828Z,998.5
2018-08-13T11:23:08.825Z,998.41
2018-08-13T11:24:08.823Z,998.62
2018-08-13T11:25:08.819Z,998.58
2018-08-13T11:26:08.866Z,998.43
2018-08-13T11:27:08.815Z,998.52
2018-08-13T11:28:08.813Z,998.39
2018-08-13T11:29:08.810Z,998.43
2018-08-13T11:30:08.807Z,998.31
2018-08-13T11:31:08.810Z,998.39
2018-08-13T11:32:08.801Z,998.37
2018-08-13T11:33:08.801Z,998.36
2018-08-13T11:34:08.796Z,998.43
2018-08-13T11:35:08.826Z,998.37
2018-08-13T11:36:08.788Z,998.35
2018-08-13T11:37:08.788Z,998.39
2018-08-13T11:38:08.784Z,998.34
2018-08-13T11:39:08.780Z,998.36
2018-08-13T11:40:08.775Z,998.33
2018-08-13T11:41:08.780Z,998.34
2018-08-13T11:42:08.776Z,998.32
2018-08-13T11:43:08.765Z,998.3
2018-08-13T11:44:08.761Z,998.35
2018-08-13T11:45:08.762Z,998.39
2018-08-13T11:46:08.757Z,998.32
2018-08-13T11:47:08.750Z,998.34
2018-08-13T11:48:08.747Z,998.34
2018-08-13T11:49:08.743Z,998.35
2018-08-13T11:50:08.737Z,998.29
2018-08-13T11:51:08.735Z,998.27
2018-08-13T11:52:08.727Z,998.26
2018-08-13T11:53:08.722Z,998.27
2018-08-13T11:54:08.715Z,998.25
2018-08-13T11:55:08.710Z,998.25
2018-08-13T11:56:08.709Z,998.24
2018-08-13T11:57:08.702Z,998.2
2018-08-13T11:58:08.696Z,998.29
2018-08-13T11:59:08.690Z,998.26
2018-08-13T12:00:08.687Z,998.27
2018-08-13T12:01:08.785Z,998.24
2018-08-13T12:02:08.737Z,998.25
2018-08-13T12:03:08.671Z,998.23
2018-08-13T12:04:08.664Z,998.21
2018-08-13T12:05:08.655Z,998.22
2018-08-13T12:06:08.649Z,998.15
2018-08-13T12:07:08.642Z,998.23
2018-08-13T12:08:08.639Z,998.18
2018-08-13T12:09:08.631Z,998.28
2018-08-13T12:10:08.625Z,998.22
2018-08-13T12:11:08.620Z,998.2
2018-08-13T12:12:08.613Z,998.2
2018-08-13T12:13:08.606Z,998.17
2018-08-13T12:14:08.662Z,998.14
2018-08-13T12:15:08.591Z,998.18
2018-08-13T12:16:08.585Z,998.1
2018-08-13T12:17:08.584Z,998.07
2018-08-13T12:18:08.573Z,998.06
2018-08-13T12:19:08.568Z,998.1
2018-08-13T12:20:08.560Z,998.14
2018-08-13T12:21:08.554Z,998.11
2018-08-13T12:22:08.545Z,998.05
2018-08-13T12:23:08.543Z,998.07
2018-08-13T12:24:08.540Z,998.07
2018-08-13T12:25:08.531Z,998.02
2018-08-13T12:26:08.522Z,998.03
2018-08-13T12:27:08.514Z,997.95
2018-08-13T12:28:08.514Z,997.98
2018-08-13T12:29:08.504Z,997.98
2018-08-13T12:30:08.498Z,997.99